sensor_id;sensor_type;location;lat;lon;timestamp;pressure;altitude;pressure_sealevel;temperature;humidity
12973;BME280;6551;51.056;9.466;2022-07-23T00:01:33;97754.22;;;21.39;73.88
12973;BME280;6551;51.056;9.466;2022-07-23T00:03:58;97756.75;;;21.59;73.54
12973;BME280;6551;51.056;9.466;2022-07-23T00:06:25;97751.97;;;21.75;73.03
12973;BME280;6551;51.056;9.466;2022-07-23T00:08:51;97750.69;;;21.67;73.04
12973;BME280;6551;51.056;9.466;2022-07-23T00:11:17;97744.47;;;21.67;72.35
12973;BME280;6551;51.056;9.466;2022-07-23T00:13:43;97738.53;;;21.88;71.95
12973;BME280;6551;51.056;9.466;2022-07-23T00:16:09;97727.69;;;21.88;71.14
12973;BME280;6551;51.056;9.466;2022-07-23T00:18:34;97729.34;;;22.08;70.19
12973;BME280;6551;51.056;9.466;2022-07-23T00:21:00;97731.56;;;22.06;69.67
12973;BME280;6551;51.056;9.466;2022-07-23T00:23:26;97735.41;;;22.24;69.12
12973;BME280;6551;51.056;9.466;2022-07-23T00:25:53;97742.81;;;22.37;69.12
12973;BME280;6551;51.056;9.466;2022-07-23T00:28:18;97741.41;;;22.39;68.54
12973;BME280;6551;51.056;9.466;2022-07-23T00:30:44;97735.69;;;22.41;67.87
12973;BME280;6551;51.056;9.466;2022-07-23T00:33:10;97726.91;;;22.49;68.13
12973;BME280;6551;51.056;9.466;2022-07-23T00:35:39;97726.38;;;22.47;67.39
12973;BME280;6551;51.056;9.466;2022-07-23T00:38:10;97725.38;;;22.43;67.83
12973;BME280;6551;51.056;9.466;2022-07-23T00:40:37;97731.06;;;22.41;67.74
12973;BME280;6551;51.056;9.466;2022-07-23T00:43:04;97728.75;;;22.35;68.38
12973;BME280;6551;51.056;9.466;2022-07-23T00:45:30;97727.69;;;22.31;68.62
12973;BME280;6551;51.056;9.466;2022-07-23T00:47:58;97717.16;;;22.29;68.24
12973;BME280;6551;51.056;9.466;2022-07-23T00:50:25;97714.13;;;22.31;68.37
12973;BME280;6551;51.056;9.466;2022-07-23T00:52:50;97706.16;;;22.39;67.86
12973;BME280;6551;51.056;9.466;2022-07-23T00:55:17;97710.25;;;22.37;67.80
12973;BME280;6551;51.056;9.466;2022-07-23T00:57:43;97706.72;;;22.36;67.76
12973;BME280;6551;51.056;9.466;2022-07-23T01:00:12;97708.34;;;22.37;68.17
12973;BME280;6551;51.056;9.466;2022-07-23T01:02:39;97706.38;;;22.43;67.94
12973;BME280;6551;51.056;9.466;2022-07-23T01:05:06;97703.50;;;22.34;67.84
12973;BME280;6551;51.056;9.466;2022-07-23T01:07:33;97700.13;;;22.42;67.71
12973;BME280;6551;51.056;9.466;2022-07-23T01:09:59;97699.16;;;22.52;67.57
12973;BME280;6551;51.056;9.466;2022-07-23T01:12:25;97699.78;;;22.49;67.77
12973;BME280;6551;51.056;9.466;2022-07-23T01:14:56;97705.94;;;22.54;67.20
12973;BME280;6551;51.056;9.466;2022-07-23T01:17:22;97728.06;;;22.61;67.73
12973;BME280;6551;51.056;9.466;2022-07-23T01:19:48;97732.13;;;22.64;67.49
12973;BME280;6551;51.056;9.466;2022-07-23T01:22:14;97714.09;;;22.54;69.03
12973;BME280;6551;51.056;9.466;2022-07-23T01:24:43;97701.38;;;22.31;70.27
12973;BME280;6551;51.056;9.466;2022-07-23T01:27:08;97704.84;;;22.37;69.24
12973;BME280;6551;51.056;9.466;2022-07-23T01:29:34;97715.31;;;22.43;68.44
12973;BME280;6551;51.056;9.466;2022-07-23T01:32:00;97715.31;;;22.43;69.36
12973;BME280;6551;51.056;9.466;2022-07-23T01:34:25;97715.84;;;22.45;69.15
12973;BME280;6551;51.056;9.466;2022-07-23T01:36:51;97701.44;;;22.45;68.64
12973;BME280;6551;51.056;9.466;2022-07-23T01:39:17;97706.94;;;22.58;67.78
12973;BME280;6551;51.056;9.466;2022-07-23T01:41:42;97709.03;;;22.66;67.54
12973;BME280;6551;51.056;9.466;2022-07-23T01:44:08;97707.94;;;22.67;67.00
12973;BME280;6551;51.056;9.466;2022-07-23T01:46:33;97701.75;;;22.62;67.34
12973;BME280;6551;51.056;9.466;2022-07-23T01:48:59;97707.34;;;22.70;67.07
12973;BME280;6551;51.056;9.466;2022-07-23T01:51:25;97702.50;;;22.67;66.65
12973;BME280;6551;51.056;9.466;2022-07-23T01:53:50;97697.34;;;22.66;66.61
12973;BME280;6551;51.056;9.466;2022-07-23T01:56:16;97695.75;;;22.65;66.38
12973;BME280;6551;51.056;9.466;2022-07-23T01:58:44;97687.44;;;22.56;67.44
12973;BME280;6551;51.056;9.466;2022-07-23T02:01:09;97686.50;;;22.47;67.67
12973;BME280;6551;51.056;9.466;2022-07-23T02:03:35;97683.84;;;22.42;68.38
12973;BME280;6551;51.056;9.466;2022-07-23T02:06:01;97679.38;;;22.33;68.67
12973;BME280;6551;51.056;9.466;2022-07-23T02:08:26;97673.16;;;22.32;68.77
12973;BME280;6551;51.056;9.466;2022-07-23T02:10:52;97684.88;;;22.28;68.49
12973;BME280;6551;51.056;9.466;2022-07-23T02:13:18;97687.59;;;22.28;69.56
12973;BME280;6551;51.056;9.466;2022-07-23T02:15:46;97683.63;;;22.20;70.01
12973;BME280;6551;51.056;9.466;2022-07-23T02:18:12;97684.72;;;22.19;69.73
12973;BME280;6551;51.056;9.466;2022-07-23T02:20:38;97694.72;;;22.24;69.94
12973;BME280;6551;51.056;9.466;2022-07-23T02:23:04;97699.84;;;22.25;69.51
12973;BME280;6551;51.056;9.466;2022-07-23T02:25:30;97695.13;;;22.12;70.33
12973;BME280;6551;51.056;9.466;2022-07-23T02:27:55;97690.28;;;21.90;71.39
12973;BME280;6551;51.056;9.466;2022-07-23T02:30:21;97694.84;;;21.66;72.40
12973;BME280;6551;51.056;9.466;2022-07-23T02:32:47;97696.19;;;21.45;73.30
12973;BME280;6551;51.056;9.466;2022-07-23T02:35:12;97703.94;;;21.28;74.70
12973;BME280;6551;51.056;9.466;2022-07-23T02:37:38;97706.88;;;21.02;75.67
12973;BME280;6551;51.056;9.466;2022-07-23T02:40:05;97703.75;;;20.90;76.03
12973;BME280;6551;51.056;9.466;2022-07-23T02:42:30;97713.31;;;20.78;77.10
12973;BME280;6551;51.056;9.466;2022-07-23T02:44:56;97721.78;;;20.66;77.63
12973;BME280;6551;51.056;9.466;2022-07-23T02:47:22;97730.97;;;20.70;77.67
12973;BME280;6551;51.056;9.466;2022-07-23T02:49:47;97731.78;;;20.71;77.45
12973;BME280;6551;51.056;9.466;2022-07-23T02:52:13;97733.19;;;20.58;77.74
12973;BME280;6551;51.056;9.466;2022-07-23T02:54:38;97728.53;;;20.69;77.73
12973;BME280;6551;51.056;9.466;2022-07-23T02:57:04;97721.41;;;20.78;77.62
12973;BME280;6551;51.056;9.466;2022-07-23T02:59:30;97730.66;;;20.72;77.21
12973;BME280;6551;51.056;9.466;2022-07-23T03:01:56;97722.84;;;20.70;77.23
12973;BME280;6551;51.056;9.466;2022-07-23T03:04:21;97724.38;;;20.81;77.34
12973;BME280;6551;51.056;9.466;2022-07-23T03:06:47;97718.47;;;20.74;76.86
12973;BME280;6551;51.056;9.466;2022-07-23T03:09:13;97734.97;;;20.78;77.23
12973;BME280;6551;51.056;9.466;2022-07-23T03:11:38;97729.47;;;20.88;77.16
12973;BME280;6551;51.056;9.466;2022-07-23T03:14:04;97726.16;;;20.96;76.67
12973;BME280;6551;51.056;9.466;2022-07-23T03:16:29;97728.25;;;21.04;75.77
12973;BME280;6551;51.056;9.466;2022-07-23T03:18:55;97725.09;;;20.92;75.73
12973;BME280;6551;51.056;9.466;2022-07-23T03:21:21;97739.81;;;20.81;76.28
12973;BME280;6551;51.056;9.466;2022-07-23T03:23:46;97732.91;;;20.65;77.24
12973;BME280;6551;51.056;9.466;2022-07-23T03:26:12;97726.97;;;20.63;77.13
12973;BME280;6551;51.056;9.466;2022-07-23T03:28:38;97731.31;;;20.59;77.45
12973;BME280;6551;51.056;9.466;2022-07-23T03:31:03;97735.16;;;20.48;77.54
12973;BME280;6551;51.056;9.466;2022-07-23T03:33:29;97727.47;;;20.26;77.96
12973;BME280;6551;51.056;9.466;2022-07-23T03:35:55;97737.97;;;20.27;78.59
12973;BME280;6551;51.056;9.466;2022-07-23T03:38:20;97741.47;;;20.33;78.10
12973;BME280;6551;51.056;9.466;2022-07-23T03:40:46;97746.06;;;20.37;77.59
12973;BME280;6551;51.056;9.466;2022-07-23T03:43:12;97744.38;;;20.47;77.66
12973;BME280;6551;51.056;9.466;2022-07-23T03:45:37;97746.50;;;20.50;77.32
12973;BME280;6551;51.056;9.466;2022-07-23T03:48:03;97746.44;;;20.65;76.48
12973;BME280;6551;51.056;9.466;2022-07-23T03:50:29;97745.34;;;20.61;76.80
12973;BME280;6551;51.056;9.466;2022-07-23T03:52:54;97736.63;;;20.69;76.41
12973;BME280;6551;51.056;9.466;2022-07-23T03:55:20;97739.91;;;20.71;76.04
12973;BME280;6551;51.056;9.466;2022-07-23T03:57:46;97739.91;;;20.71;75.86
12973;BME280;6551;51.056;9.466;2022-07-23T04:00:12;97744.19;;;20.77;75.08
12973;BME280;6551;51.056;9.466;2022-07-23T04:02:39;97748.22;;;20.74;75.02
12973;BME280;6551;51.056;9.466;2022-07-23T04:05:05;97750.59;;;20.86;75.37
12973;BME280;6551;51.056;9.466;2022-07-23T04:07:31;97741.34;;;20.92;74.66
12973;BME280;6551;51.056;9.466;2022-07-23T04:09:57;97755.19;;;20.85;75.39
12973;BME280;6551;51.056;9.466;2022-07-23T04:12:24;97754.38;;;20.90;74.68
12973;BME280;6551;51.056;9.466;2022-07-23T04:14:50;97753.56;;;20.89;75.09
12973;BME280;6551;51.056;9.466;2022-07-23T04:17:16;97752.94;;;20.97;74.66
12973;BME280;6551;51.056;9.466;2022-07-23T04:19:41;97754.28;;;21.00;74.61
12973;BME280;6551;51.056;9.466;2022-07-23T04:22:10;97751.91;;;20.93;74.60
12973;BME280;6551;51.056;9.466;2022-07-23T04:24:37;97761.38;;;20.91;74.97
12973;BME280;6551;51.056;9.466;2022-07-23T04:27:03;97760.75;;;21.04;74.26
12973;BME280;6551;51.056;9.466;2022-07-23T04:29:29;97754.81;;;21.07;74.19
12973;BME280;6551;51.056;9.466;2022-07-23T04:31:55;97749.09;;;21.09;73.59
12973;BME280;6551;51.056;9.466;2022-07-23T04:34:20;97746.88;;;21.16;73.31
12973;BME280;6551;51.056;9.466;2022-07-23T04:36:47;97759.91;;;21.09;73.66
12973;BME280;6551;51.056;9.466;2022-07-23T04:39:12;97746.88;;;21.16;73.87
12973;BME280;6551;51.056;9.466;2022-07-23T04:41:38;97752.81;;;21.18;73.02
12973;BME280;6551;51.056;9.466;2022-07-23T04:44:04;97756.84;;;21.20;72.71
12973;BME280;6551;51.056;9.466;2022-07-23T04:46:29;97754.19;;;21.15;72.99
12973;BME280;6551;51.056;9.466;2022-07-23T04:48:55;97752.75;;;21.23;73.02
12973;BME280;6551;51.056;9.466;2022-07-23T04:51:21;97756.75;;;21.30;73.40
12973;BME280;6551;51.056;9.466;2022-07-23T04:53:46;97753.16;;;21.40;72.23
12973;BME280;6551;51.056;9.466;2022-07-23T04:56:12;97752.72;;;21.56;71.70
12973;BME280;6551;51.056;9.466;2022-07-23T04:58:38;97750.56;;;21.53;71.30
12973;BME280;6551;51.056;9.466;2022-07-23T05:01:04;97749.00;;;21.47;71.13
12973;BME280;6551;51.056;9.466;2022-07-23T05:03:30;97748.94;;;21.52;71.50
12973;BME280;6551;51.056;9.466;2022-07-23T05:05:56;97752.72;;;21.56;71.24
12973;BME280;6551;51.056;9.466;2022-07-23T05:08:22;97742.50;;;21.72;70.57
12973;BME280;6551;51.056;9.466;2022-07-23T05:10:48;97748.03;;;21.86;70.16
12973;BME280;6551;51.056;9.466;2022-07-23T05:13:17;97742.25;;;21.97;69.74
12973;BME280;6551;51.056;9.466;2022-07-23T05:15:44;97743.69;;;21.90;69.53
12973;BME280;6551;51.056;9.466;2022-07-23T05:18:11;97736.59;;;21.94;69.71
12973;BME280;6551;51.056;9.466;2022-07-23T05:20:36;97741.09;;;22.03;69.48
12973;BME280;6551;51.056;9.466;2022-07-23T05:23:03;97746.91;;;22.16;69.29
12973;BME280;6551;51.056;9.466;2022-07-23T05:25:28;97750.16;;;22.36;68.53
12973;BME280;6551;51.056;9.466;2022-07-23T05:27:54;97750.72;;;22.52;68.01
12973;BME280;6551;51.056;9.466;2022-07-23T05:30:20;97754.50;;;22.75;66.68
12973;BME280;6551;51.056;9.466;2022-07-23T05:32:45;97758.31;;;22.92;65.82
12973;BME280;6551;51.056;9.466;2022-07-23T05:35:12;97760.28;;;23.05;64.99
12973;BME280;6551;51.056;9.466;2022-07-23T05:37:37;97742.41;;;23.18;64.50
12973;BME280;6551;51.056;9.466;2022-07-23T05:40:06;97734.09;;;23.28;64.27
12973;BME280;6551;51.056;9.466;2022-07-23T05:42:34;97733.44;;;23.50;64.57
12973;BME280;6551;51.056;9.466;2022-07-23T05:45:00;97742.63;;;23.67;63.85
12973;BME280;6551;51.056;9.466;2022-07-23T05:47:25;97746.97;;;23.96;62.39
12973;BME280;6551;51.056;9.466;2022-07-23T05:49:51;97750.00;;;24.21;61.84
12973;BME280;6551;51.056;9.466;2022-07-23T05:52:17;97748.56;;;24.51;60.97
12973;BME280;6551;51.056;9.466;2022-07-23T05:54:42;97752.78;;;24.93;60.39
12973;BME280;6551;51.056;9.466;2022-07-23T05:57:08;97747.41;;;25.24;58.74
12973;BME280;6551;51.056;9.466;2022-07-23T05:59:33;97751.44;;;25.48;58.26
12973;BME280;6551;51.056;9.466;2022-07-23T06:01:59;97754.97;;;25.57;57.38
12973;BME280;6551;51.056;9.466;2022-07-23T06:04:25;97745.38;;;25.60;57.25
12973;BME280;6551;51.056;9.466;2022-07-23T06:06:51;97749.91;;;25.65;57.53
12973;BME280;6551;51.056;9.466;2022-07-23T06:09:17;97741.72;;;25.65;57.42
12973;BME280;6551;51.056;9.466;2022-07-23T06:11:43;97750.50;;;25.92;57.29
12973;BME280;6551;51.056;9.466;2022-07-23T06:14:09;97744.03;;;26.28;56.13
12973;BME280;6551;51.056;9.466;2022-07-23T06:16:35;97742.97;;;26.63;55.68
12973;BME280;6551;51.056;9.466;2022-07-23T06:19:00;97740.78;;;26.82;55.06
12973;BME280;6551;51.056;9.466;2022-07-23T06:21:26;97745.56;;;27.02;53.75
12973;BME280;6551;51.056;9.466;2022-07-23T06:23:52;97752.81;;;27.15;53.69
12973;BME280;6551;51.056;9.466;2022-07-23T06:26:17;97748.28;;;27.45;53.12
12973;BME280;6551;51.056;9.466;2022-07-23T06:28:43;97754.97;;;27.73;52.86
12973;BME280;6551;51.056;9.466;2022-07-23T06:31:08;97752.97;;;27.82;52.38
12973;BME280;6551;51.056;9.466;2022-07-23T06:33:34;97753.78;;;27.83;51.92
12973;BME280;6551;51.056;9.466;2022-07-23T06:36:00;97758.34;;;27.70;52.53
12973;BME280;6551;51.056;9.466;2022-07-23T06:38:25;97765.16;;;27.47;52.94
12973;BME280;6551;51.056;9.466;2022-07-23T06:40:52;97763.56;;;27.29;53.57
12973;BME280;6551;51.056;9.466;2022-07-23T06:43:18;97760.84;;;27.12;53.66
12973;BME280;6551;51.056;9.466;2022-07-23T06:45:43;97766.16;;;27.17;53.80
12973;BME280;6551;51.056;9.466;2022-07-23T06:48:09;97760.97;;;27.24;53.41
12973;BME280;6551;51.056;9.466;2022-07-23T06:50:34;97766.13;;;27.51;52.89
12973;BME280;6551;51.056;9.466;2022-07-23T06:53:00;97767.03;;;27.64;52.36
12973;BME280;6551;51.056;9.466;2022-07-23T06:55:26;97773.09;;;27.86;52.17
12973;BME280;6551;51.056;9.466;2022-07-23T06:57:52;97776.25;;;28.06;50.95
12973;BME280;6551;51.056;9.466;2022-07-23T07:00:18;97773.38;;;27.94;51.73
12973;BME280;6551;51.056;9.466;2022-07-23T07:02:44;97783.25;;;28.24;51.42
12973;BME280;6551;51.056;9.466;2022-07-23T07:05:09;97785.47;;;28.60;49.92
12973;BME280;6551;51.056;9.466;2022-07-23T07:07:35;97790.94;;;28.68;50.14
12973;BME280;6551;51.056;9.466;2022-07-23T07:10:02;97788.50;;;28.67;49.11
12973;BME280;6551;51.056;9.466;2022-07-23T07:12:28;97791.66;;;28.77;49.23
12973;BME280;6551;51.056;9.466;2022-07-23T07:14:54;97798.38;;;28.59;49.66
12973;BME280;6551;51.056;9.466;2022-07-23T07:17:20;97799.88;;;28.77;50.47
12973;BME280;6551;51.056;9.466;2022-07-23T07:19:46;97796.09;;;28.90;49.49
12973;BME280;6551;51.056;9.466;2022-07-23T07:22:11;97798.69;;;28.87;50.39
12973;BME280;6551;51.056;9.466;2022-07-23T07:24:37;97799.88;;;28.77;50.11
12973;BME280;6551;51.056;9.466;2022-07-23T07:27:03;97804.19;;;28.58;49.76
12973;BME280;6551;51.056;9.466;2022-07-23T07:29:29;97805.13;;;28.62;49.90
12973;BME280;6551;51.056;9.466;2022-07-23T07:31:54;97804.66;;;28.89;49.70
12973;BME280;6551;51.056;9.466;2022-07-23T07:34:20;97810.91;;;29.10;49.19
12973;BME280;6551;51.056;9.466;2022-07-23T07:36:46;97803.28;;;29.16;48.91
12973;BME280;6551;51.056;9.466;2022-07-23T07:39:12;97810.13;;;29.30;48.87
12973;BME280;6551;51.056;9.466;2022-07-23T07:41:38;97827.19;;;29.15;49.34
12973;BME280;6551;51.056;9.466;2022-07-23T07:44:03;97820.97;;;29.27;50.04
12973;BME280;6551;51.056;9.466;2022-07-23T07:46:29;97821.38;;;29.37;48.79
12973;BME280;6551;51.056;9.466;2022-07-23T07:48:55;97820.91;;;29.35;48.99
12973;BME280;6551;51.056;9.466;2022-07-23T07:51:21;97829.84;;;29.77;48.51
12973;BME280;6551;51.056;9.466;2022-07-23T07:53:47;97835.34;;;29.77;47.92
12973;BME280;6551;51.056;9.466;2022-07-23T07:56:13;97840.50;;;30.11;47.08
12973;BME280;6551;51.056;9.466;2022-07-23T07:58:39;97841.00;;;30.50;46.64
12973;BME280;6551;51.056;9.466;2022-07-23T08:01:05;97840.84;;;30.83;46.07
12973;BME280;6551;51.056;9.466;2022-07-23T08:03:31;97846.84;;;30.85;45.20
12973;BME280;6551;51.056;9.466;2022-07-23T08:05:57;97850.28;;;30.94;45.65
12973;BME280;6551;51.056;9.466;2022-07-23T08:08:23;97847.25;;;31.11;44.98
12973;BME280;6551;51.056;9.466;2022-07-23T08:10:50;97850.44;;;31.25;44.35
12973;BME280;6551;51.056;9.466;2022-07-23T08:13:16;97844.22;;;31.28;44.25
12973;BME280;6551;51.056;9.466;2022-07-23T08:15:43;97845.84;;;31.29;44.10
12973;BME280;6551;51.056;9.466;2022-07-23T08:18:09;97855.53;;;31.39;44.05
12973;BME280;6551;51.056;9.466;2022-07-23T08:20:35;97858.75;;;31.41;43.58
12973;BME280;6551;51.056;9.466;2022-07-23T08:23:07;97851.47;;;31.60;43.43
12973;BME280;6551;51.056;9.466;2022-07-23T08:25:39;97853.78;;;31.58;42.54
12973;BME280;6551;51.056;9.466;2022-07-23T08:28:08;97856.56;;;30.82;44.13
12973;BME280;6551;51.056;9.466;2022-07-23T08:30:35;97855.47;;;30.02;46.72
12973;BME280;6551;51.056;9.466;2022-07-23T08:33:06;97866.28;;;30.31;45.09
12973;BME280;6551;51.056;9.466;2022-07-23T08:35:40;97864.03;;;30.45;44.20
12973;BME280;6551;51.056;9.466;2022-07-23T08:38:09;97876.72;;;30.86;44.23
12973;BME280;6551;51.056;9.466;2022-07-23T08:40:39;97867.50;;;31.31;44.52
12973;BME280;6551;51.056;9.466;2022-07-23T08:43:08;97874.16;;;31.29;44.26
12973;BME280;6551;51.056;9.466;2022-07-23T08:45:42;97864.78;;;31.58;43.58
12973;BME280;6551;51.056;9.466;2022-07-23T08:48:16;97877.59;;;31.94;44.80
12973;BME280;6551;51.056;9.466;2022-07-23T08:50:51;97875.56;;;31.63;44.21
12973;BME280;6551;51.056;9.466;2022-07-23T08:53:21;97877.75;;;31.58;44.11
12973;BME280;6551;51.056;9.466;2022-07-23T08:55:57;97882.69;;;31.64;44.22
12973;BME280;6551;51.056;9.466;2022-07-23T08:58:24;97873.16;;;31.62;43.20
12973;BME280;6551;51.056;9.466;2022-07-23T09:00:51;97875.44;;;31.20;44.39
12973;BME280;6551;51.056;9.466;2022-07-23T09:03:19;97882.00;;;30.55;45.51
12973;BME280;6551;51.056;9.466;2022-07-23T09:05:45;97882.38;;;30.53;46.26
12973;BME280;6551;51.056;9.466;2022-07-23T09:10:54;97889.00;;;30.64;45.20
12973;BME280;6551;51.056;9.466;2022-07-23T09:13:41;97880.91;;;30.11;46.40
12973;BME280;6551;51.056;9.466;2022-07-23T09:16:27;97883.19;;;29.14;47.95
12973;BME280;6551;51.056;9.466;2022-07-23T09:19:11;97882.22;;;28.14;50.41
12973;BME280;6551;51.056;9.466;2022-07-23T09:21:39;97882.25;;;27.88;51.78
12973;BME280;6551;51.056;9.466;2022-07-23T09:24:13;97890.91;;;28.16;51.57
12973;BME280;6551;51.056;9.466;2022-07-23T09:26:44;97892.00;;;28.32;51.13
12973;BME280;6551;51.056;9.466;2022-07-23T09:31:56;97893.81;;;29.16;48.65
12973;BME280;6551;51.056;9.466;2022-07-23T09:34:28;97901.72;;;29.79;46.98
12973;BME280;6551;51.056;9.466;2022-07-23T09:37:08;97897.19;;;30.28;47.38
12973;BME280;6551;51.056;9.466;2022-07-23T09:39:34;97899.16;;;29.95;47.76
12973;BME280;6551;51.056;9.466;2022-07-23T09:44:44;97891.38;;;28.26;48.58
12973;BME280;6551;51.056;9.466;2022-07-23T09:47:12;97895.16;;;28.80;49.27
12973;BME280;6551;51.056;9.466;2022-07-23T09:49:38;97902.59;;;29.09;48.03
12973;BME280;6551;51.056;9.466;2022-07-23T09:52:06;97900.09;;;29.16;47.37
12973;BME280;6551;51.056;9.466;2022-07-23T09:54:35;97890.25;;;29.24;48.24
12973;BME280;6551;51.056;9.466;2022-07-23T09:57:11;97889.13;;;29.16;48.41
12973;BME280;6551;51.056;9.466;2022-07-23T09:59:42;97892.63;;;28.75;49.87
12973;BME280;6551;51.056;9.466;2022-07-23T10:02:11;97891.00;;;28.74;49.58
12973;BME280;6551;51.056;9.466;2022-07-23T10:04:38;97897.16;;;28.25;50.54
12973;BME280;6551;51.056;9.466;2022-07-23T10:07:08;97897.53;;;28.53;50.97
12973;BME280;6551;51.056;9.466;2022-07-23T10:09:40;97890.84;;;28.33;50.61
12973;BME280;6551;51.056;9.466;2022-07-23T10:12:12;97904.00;;;28.86;48.85
12973;BME280;6551;51.056;9.466;2022-07-23T10:15:05;97900.44;;;29.23;48.64
12973;BME280;6551;51.056;9.466;2022-07-23T10:17:33;97909.13;;;29.87;48.28
12973;BME280;6551;51.056;9.466;2022-07-23T10:19:59;97905.03;;;30.05;45.93
12973;BME280;6551;51.056;9.466;2022-07-23T10:36:49;97904.84;;;31.83;42.84
12973;BME280;6551;51.056;9.466;2022-07-23T10:39:29;97903.13;;;32.34;41.10
12973;BME280;6551;51.056;9.466;2022-07-23T10:42:16;97895.66;;;32.82;41.27
12973;BME280;6551;51.056;9.466;2022-07-23T10:44:46;97905.88;;;32.66;40.43
12973;BME280;6551;51.056;9.466;2022-07-23T10:47:25;97893.69;;;31.92;40.81
12973;BME280;6551;51.056;9.466;2022-07-23T10:50:26;97888.50;;;31.91;40.69
12973;BME280;6551;51.056;9.466;2022-07-23T10:58:03;97893.34;;;30.78;41.73
12973;BME280;6551;51.056;9.466;2022-07-23T11:00:33;97881.53;;;31.65;41.69
12973;BME280;6551;51.056;9.466;2022-07-23T11:03:02;97884.47;;;31.33;42.01
12973;BME280;6551;51.056;9.466;2022-07-23T11:13:39;97880.94;;;31.20;40.62
12973;BME280;6551;51.056;9.466;2022-07-23T11:16:05;97885.53;;;31.16;41.72
12973;BME280;6551;51.056;9.466;2022-07-23T11:26:56;97877.06;;;32.48;39.32
12973;BME280;6551;51.056;9.466;2022-07-23T11:32:22;97872.84;;;32.85;39.27
12973;BME280;6551;51.056;9.466;2022-07-23T11:34:51;97874.84;;;31.66;37.99
12973;BME280;6551;51.056;9.466;2022-07-23T11:37:39;97873.66;;;31.52;38.89
12973;BME280;6551;51.056;9.466;2022-07-23T11:40:12;97887.38;;;31.64;39.47
12973;BME280;6551;51.056;9.466;2022-07-23T11:42:50;97883.22;;;31.70;38.59
12973;BME280;6551;51.056;9.466;2022-07-23T11:45:16;97880.75;;;32.08;38.70
12973;BME280;6551;51.056;9.466;2022-07-23T11:47:42;97881.78;;;32.31;39.40
12973;BME280;6551;51.056;9.466;2022-07-23T11:50:09;97880.16;;;32.46;37.71
12973;BME280;6551;51.056;9.466;2022-07-23T11:52:35;97875.25;;;32.86;36.50
12973;BME280;6551;51.056;9.466;2022-07-23T11:55:08;97861.38;;;32.83;36.61
12973;BME280;6551;51.056;9.466;2022-07-23T11:57:40;97860.59;;;32.67;36.37
12973;BME280;6551;51.056;9.466;2022-07-23T12:00:19;97875.00;;;32.29;37.18
12973;BME280;6551;51.056;9.466;2022-07-23T12:02:58;97873.22;;;32.21;37.10
12973;BME280;6551;51.056;9.466;2022-07-23T12:05:28;97875.06;;;32.01;36.94
12973;BME280;6551;51.056;9.466;2022-07-23T12:07:56;97868.50;;;31.78;38.07
12973;BME280;6551;51.056;9.466;2022-07-23T12:10:33;97871.81;;;31.83;37.52
12973;BME280;6551;51.056;9.466;2022-07-23T12:13:13;97861.63;;;31.72;37.37
12973;BME280;6551;51.056;9.466;2022-07-23T12:15:56;97857.78;;;31.61;38.90
12973;BME280;6551;51.056;9.466;2022-07-23T12:18:26;97853.34;;;31.44;38.72
12973;BME280;6551;51.056;9.466;2022-07-23T12:20:55;97869.53;;;30.94;39.18
12973;BME280;6551;51.056;9.466;2022-07-23T12:23:24;97867.13;;;31.04;40.22
12973;BME280;6551;51.056;9.466;2022-07-23T12:25:53;97860.22;;;30.86;39.55
12973;BME280;6551;51.056;9.466;2022-07-23T12:28:26;97861.41;;;31.37;39.64
12973;BME280;6551;51.056;9.466;2022-07-23T12:30:54;97853.81;;;30.94;38.79
12973;BME280;6551;51.056;9.466;2022-07-23T12:33:28;97859.66;;;30.81;40.28
12973;BME280;6551;51.056;9.466;2022-07-23T12:35:58;97867.22;;;30.84;39.51
12973;BME280;6551;51.056;9.466;2022-07-23T12:38:26;97861.38;;;31.09;40.12
12973;BME280;6551;51.056;9.466;2022-07-23T12:41:14;97862.50;;;31.20;40.30
12973;BME280;6551;51.056;9.466;2022-07-23T12:43:43;97852.78;;;30.26;41.13
12973;BME280;6551;51.056;9.466;2022-07-23T12:46:15;97862.97;;;30.26;42.12
12973;BME280;6551;51.056;9.466;2022-07-23T12:53:47;97868.91;;;29.83;41.97
12973;BME280;6551;51.056;9.466;2022-07-23T12:56:17;97868.88;;;30.15;41.53
12973;BME280;6551;51.056;9.466;2022-07-23T12:58:49;97865.69;;;30.26;41.75
12973;BME280;6551;51.056;9.466;2022-07-23T13:01:24;97860.94;;;30.59;41.60
12973;BME280;6551;51.056;9.466;2022-07-23T13:04:19;97860.25;;;30.98;41.21
12973;BME280;6551;51.056;9.466;2022-07-23T13:06:53;97867.47;;;31.03;40.64
12973;BME280;6551;51.056;9.466;2022-07-23T13:09:25;97867.00;;;31.01;39.57
12973;BME280;6551;51.056;9.466;2022-07-23T13:11:53;97859.66;;;30.68;39.04
12973;BME280;6551;51.056;9.466;2022-07-23T13:14:21;97865.84;;;30.65;40.15
12973;BME280;6551;51.056;9.466;2022-07-23T13:16:49;97859.22;;;30.66;38.95
12973;BME280;6551;51.056;9.466;2022-07-23T13:19:16;97868.72;;;30.81;39.99
12973;BME280;6551;51.056;9.466;2022-07-23T13:21:43;97863.91;;;31.02;39.57
12973;BME280;6551;51.056;9.466;2022-07-23T13:24:10;97872.47;;;31.13;39.05
12973;BME280;6551;51.056;9.466;2022-07-23T13:26:37;97859.75;;;31.20;38.67
12973;BME280;6551;51.056;9.466;2022-07-23T13:29:04;97860.50;;;31.33;40.06
12973;BME280;6551;51.056;9.466;2022-07-23T13:31:30;97858.38;;;31.14;39.89
12973;BME280;6551;51.056;9.466;2022-07-23T13:33:57;97854.25;;;31.20;39.80
12973;BME280;6551;51.056;9.466;2022-07-23T13:36:22;97858.72;;;31.13;40.01
12973;BME280;6551;51.056;9.466;2022-07-23T13:38:48;97866.38;;;31.32;40.37
12973;BME280;6551;51.056;9.466;2022-07-23T13:41:14;97860.88;;;31.19;40.12
12973;BME280;6551;51.056;9.466;2022-07-23T13:43:41;97869.41;;;31.02;40.41
12973;BME280;6551;51.056;9.466;2022-07-23T13:46:07;97856.50;;;31.31;40.12
12973;BME280;6551;51.056;9.466;2022-07-23T13:48:33;97862.50;;;31.08;39.68
12973;BME280;6551;51.056;9.466;2022-07-23T13:50:59;97856.44;;;31.15;39.85
12973;BME280;6551;51.056;9.466;2022-07-23T13:53:25;97858.13;;;31.19;40.58
12973;BME280;6551;51.056;9.466;2022-07-23T13:55:53;97860.47;;;30.93;40.02
12973;BME280;6551;51.056;9.466;2022-07-23T13:58:19;97863.53;;;30.92;40.26
12973;BME280;6551;51.056;9.466;2022-07-23T14:00:51;97850.81;;;31.11;39.32
12973;BME280;6551;51.056;9.466;2022-07-23T14:03:19;97849.00;;;30.91;40.21
12973;BME280;6551;51.056;9.466;2022-07-23T14:05:44;97859.56;;;31.01;40.23